Prospect, Connecticut
Current Conditions -  °F | °C
As of 6:53 PM on Thursday 27 Nov 2014 (Local Time) from KMMK Reporting Station
Overcast Overcast  
Wind Chill: 29°   Ceiling: 8000
Heat Index: 33°   Visibility: 10mi
Dew Point: 29°   Wind: 5mph
Humidity: 85%   Direction: 290°WNW
Pressure: 30.01"   Gusts: NA
Location:  41.5°N, 72.98°W
Report Text: KMMK 272353Z AUTO 29004KT 10SM SCT050 OVC080 01/M02 A3001 RMK AO2 SNE11 SLP165 P0000 60000 T00061017 10022 20006 53011 TSNO
Loading
Personal Weather Stations






























Interactive Weather Map New forecast layout! Learn more

10-Day Weather Forecast

Advertisements
Track Severe Weather on mobile